Time;durP1;ratioP1;P1;durP2;ratioP2;P2;SDS_P1;SDS_P2;PMS_P1;PMS_P2;Temp;Humidity;BMP_temperature;BMP_pressure;BME280_temperature;BME280_humidity;BME280_pressure;Samples;Min_cycle;Max_cycle;Signal;HPM_P1;HPM_P2
2024/01/24 00:00:01;;;;;;;2.50;0.73;;;7.20;99.90;7.20;100755.00;;;;4898241;28;101126;-74
2024/01/24 00:02:27;;;;;;;0.47;0.47;;;7.30;99.90;7.20;100747.00;;;;4894415;28;87965;-74
2024/01/24 00:04:52;;;;;;;1.37;1.00;;;7.40;99.90;7.20;100748.00;;;;4898509;28;116659;-73
2024/01/24 00:07:18;;;;;;;2.60;0.73;;;7.50;99.90;7.20;100739.00;;;;4896132;28;117264;-72
2024/01/24 00:09:44;;;;;;;1.27;0.90;;;7.40;99.90;7.20;100732.00;;;;4899599;28;109649;-72
2024/01/24 00:12:09;;;;;;;0.53;0.50;;;7.40;99.90;7.20;100720.00;;;;4914765;28;87746;-71
2024/01/24 00:14:35;;;;;;;0.70;0.70;;;7.40;99.90;7.20;100723.00;;;;4899433;28;87186;-72
2024/01/24 00:17:01;;;;;;;1.10;0.60;;;7.80;99.90;7.20;100710.00;;;;4903322;28;115216;-73
2024/01/24 00:19:27;;;;;;;1.20;0.67;;;7.40;99.90;7.20;100700.00;;;;4902727;28;87901;-73
2024/01/24 00:21:52;;;;;;;2.73;1.00;;;7.40;99.90;7.20;100689.00;;;;4904015;28;89210;-72
2024/01/24 00:24:18;;;;;;;0.67;0.50;;;8.10;99.90;7.20;100677.00;;;;4903273;28;88140;-73
2024/01/24 00:26:44;;;;;;;0.60;0.40;;;7.20;99.90;7.10;100674.00;;;;4897254;28;116670;-71
2024/01/24 00:29:09;;;;;;;4.13;0.57;;;7.30;99.90;7.00;100677.00;;;;4898894;28;111211;-74
2024/01/24 00:31:35;;;;;;;2.60;0.53;;;7.20;99.90;7.00;100666.00;;;;4900826;28;108108;-72
2024/01/24 00:34:01;;;;;;;0.33;0.33;;;7.20;99.90;6.90;100644.00;;;;4897415;28;118766;-72
2024/01/24 00:36:26;;;;;;;3.90;0.67;;;7.10;99.90;6.90;100643.00;;;;4901222;28;88209;-72
2024/01/24 00:38:52;;;;;;;3.23;0.87;;;7.40;99.90;6.80;100644.00;;;;4899921;28;110528;-72
2024/01/24 00:41:18;;;;;;;1.67;0.57;;;7.00;99.90;6.80;100641.00;;;;4899550;28;87965;-71
2024/01/24 00:43:43;;;;;;;1.33;0.77;;;7.00;99.90;6.70;100628.00;;;;4898769;28;115966;-74
2024/01/24 00:46:09;;;;;;;1.37;0.40;;;6.90;99.90;6.70;100628.00;;;;4899362;28;117474;-73
2024/01/24 00:48:35;;;;;;;0.43;0.30;;;7.40;99.90;6.70;100610.00;;;;4909268;28;108937;-71
2024/01/24 00:51:01;;;;;;;1.43;0.40;;;6.90;99.90;6.60;100606.00;;;;4901427;28;109052;-73
2024/01/24 00:53:29;;;;;;;1.07;0.53;;;6.80;99.90;6.60;100609.00;;;;4900077;28;118364;-72
2024/01/24 00:55:56;;;;;;;1.37;0.73;;;6.80;99.90;6.60;100591.00;;;;4901420;28;99634;-71
2024/01/24 00:58:22;;;;;;;2.17;0.50;;;6.80;99.90;6.50;100593.00;;;;4911635;28;88134;-73
2024/01/24 01:00:48;;;;;;;0.20;0.20;;;6.70;99.90;6.50;100587.00;;;;4901867;28;108976;-77
2024/01/24 01:03:13;;;;;;;1.50;0.40;;;6.70;99.90;6.50;100570.00;;;;4897714;28;116968;-76
2024/01/24 01:05:39;;;;;;;1.33;0.40;;;6.80;99.90;6.50;100569.00;;;;4895874;28;115501;-73
2024/01/24 01:08:05;;;;;;;3.33;0.50;;;6.60;99.90;6.40;100559.00;;;;4901846;28;110083;-73
2024/01/24 01:10:31;;;;;;;3.10;0.30;;;6.60;99.90;6.40;100546.00;;;;4896810;28;108079;-76
2024/01/24 01:12:57;;;;;;;2.00;0.37;;;6.60;99.90;6.30;100552.00;;;;4897617;28;120298;-76
2024/01/24 01:15:24;;;;;;;0.70;0.43;;;6.50;99.90;6.30;100549.00;;;;4916311;28;116182;-74
2024/01/24 01:17:51;;;;;;;0.47;0.17;;;7.10;99.90;6.30;100527.00;;;;4899064;28;87792;-75
2024/01/24 01:20:19;;;;;;;2.63;0.20;;;6.50;99.90;6.30;100515.00;;;;4900681;28;88068;-76
2024/01/24 01:22:45;;;;;;;0.40;0.40;;;6.30;99.90;6.20;100528.00;;;;4914527;28;87911;-75
2024/01/24 01:25:11;;;;;;;1.20;0.47;;;6.50;99.90;6.20;100509.00;;;;4911812;28;87839;-73
2024/01/24 01:27:37;;;;;;;0.40;0.40;;;6.80;99.90;6.20;100503.00;;;;4895512;28;109087;-75
2024/01/24 01:30:04;;;;;;;0.37;0.37;;;7.10;99.90;6.20;100481.00;;;;4900936;28;88103;-75
2024/01/24 01:32:29;;;;;;;0.30;0.20;;;6.40;99.90;6.20;100477.00;;;;4900140;28;103890;-74
2024/01/24 01:34:55;;;;;;;3.00;0.60;;;6.40;99.90;6.20;100475.00;;;;4893550;28;117027;-77
2024/01/24 01:37:23;;;;;;;1.70;0.70;;;6.30;99.90;6.20;100465.00;;;;4891925;28;110500;-78
2024/01/24 01:39:52;;;;;;;1.93;0.63;;;6.40;99.90;6.20;100459.00;;;;4895363;28;87947;-78
2024/01/24 01:42:18;;;;;;;0.40;0.30;;;6.40;99.90;6.20;100447.00;;;;4895559;28;117843;-76
2024/01/24 01:44:47;;;;;;;0.60;0.30;;;6.30;99.90;6.20;100438.00;;;;4896905;28;117602;-76
2024/01/24 01:47:16;;;;;;;1.17;0.50;;;6.30;99.90;6.30;100432.00;;;;4913410;28;110436;-76
2024/01/24 01:49:44;;;;;;;1.50;0.63;;;6.70;99.90;6.30;100412.00;;;;4899746;28;107779;-77
2024/01/24 01:52:10;;;;;;;0.20;0.20;;;6.40;99.90;6.30;100421.00;;;;4894420;28;88263;-75
2024/01/24 01:54:41;;;;;;;0.63;0.40;;;7.30;99.90;6.30;100405.00;;;;4900239;28;98720;-74
2024/01/24 01:57:08;;;;;;;1.50;0.60;;;6.40;99.90;6.30;100390.00;;;;4915919;28;88027;-76
2024/01/24 01:59:35;;;;;;;1.40;0.40;;;6.50;99.90;6.30;100390.00;;;;4902149;28;88620;-77
2024/01/24 02:02:04;;;;;;;0.73;0.50;;;6.50;99.90;6.40;100389.00;;;;4893045;28;117091;-74
2024/01/24 02:04:30;;;;;;;6.00;0.60;;;6.50;99.90;6.40;100372.00;;;;4880906;28;90033;-77
2024/01/24 02:06:56;;;;;;;1.50;0.50;;;6.60;99.90;6.40;100371.00;;;;4897067;28;87814;-73
2024/01/24 02:09:22;;;;;;;2.80;0.73;;;6.60;99.90;6.40;100365.00;;;;4898269;28;88391;-74
2024/01/24 02:11:48;;;;;;;0.57;0.30;;;6.60;99.90;6.50;100356.00;;;;4897809;28;88603;-74
2024/01/24 02:14:14;;;;;;;1.03;0.40;;;6.50;99.90;6.50;100352.00;;;;4899523;28;92441;-74
2024/01/24 02:16:40;;;;;;;0.33;0.27;;;6.60;99.90;6.50;100345.00;;;;4900140;28;87053;-72
2024/01/24 02:19:06;;;;;;;0.83;0.30;;;6.70;99.90;6.50;100338.00;;;;4898096;28;108948;-73
2024/01/24 02:21:33;;;;;;;0.40;0.40;;;6.70;99.90;6.50;100335.00;;;;4910218;28;88031;-74
2024/01/24 02:23:59;;;;;;;0.53;0.37;;;6.30;99.90;6.60;100321.00;;;;4896675;28;89010;-71
2024/01/24 02:26:25;;;;;;;0.43;0.30;;;6.70;99.90;6.60;100308.00;;;;4896132;28;87924;-72
2024/01/24 02:28:51;;;;;;;0.40;0.40;;;6.70;99.90;6.60;100306.00;;;;4912296;28;88121;-74
2024/01/24 02:31:16;;;;;;;2.10;0.80;;;7.10;99.90;6.60;100309.00;;;;4896146;28;91543;-74
2024/01/24 02:33:42;;;;;;;0.43;0.30;;;6.70;99.90;6.70;100307.00;;;;4899444;28;117365;-72
2024/01/24 02:36:09;;;;;;;0.40;0.30;;;6.80;99.90;6.70;100305.00;;;;4894572;28;109751;-71
2024/01/24 02:38:35;;;;;;;1.40;0.30;;;6.80;99.90;6.70;100282.00;;;;4911754;28;89331;-73
2024/01/24 02:41:01;;;;;;;0.43;0.43;;;6.80;99.90;6.70;100271.00;;;;4895919;28;117811;-73
2024/01/24 02:43:27;;;;;;;2.47;0.97;;;6.80;99.90;6.70;100281.00;;;;4899604;28;88099;-72
2024/01/24 02:45:53;;;;;;;0.43;0.40;;;6.90;99.90;6.80;100267.00;;;;4899673;28;100632;-71
2024/01/24 02:48:20;;;;;;;0.70;0.33;;;6.90;99.90;6.80;100257.00;;;;4899127;28;88731;-72
2024/01/24 02:50:45;;;;;;;1.20;0.37;;;6.90;99.90;6.80;100241.00;;;;4900098;28;88248;-72
2024/01/24 02:53:11;;;;;;;1.30;0.53;;;7.00;99.90;6.80;100217.00;;;;4898902;28;116129;-73
2024/01/24 02:55:36;;;;;;;1.33;0.40;;;7.00;99.90;6.90;100215.00;;;;4914968;28;87917;-71
2024/01/24 02:58:02;;;;;;;1.60;0.40;;;7.20;99.90;6.90;100229.00;;;;4901309;28;108237;-70
2024/01/24 03:00:29;;;;;;;0.83;0.40;;;7.10;99.90;6.90;100212.00;;;;4896346;28;107434;-70
2024/01/24 03:02:54;;;;;;;3.03;0.40;;;7.00;99.90;7.00;100196.00;;;;4900152;28;87772;-71
2024/01/24 03:05:20;;;;;;;0.73;0.57;;;7.10;99.90;7.00;100213.00;;;;4902327;28;108572;-71
2024/01/24 03:07:47;;;;;;;2.50;0.50;;;7.10;99.90;7.10;100198.00;;;;4899838;28;108685;-69
2024/01/24 03:10:13;;;;;;;0.40;0.40;;;7.20;99.90;7.10;100216.00;;;;4893579;28;108496;-69
2024/01/24 03:12:38;;;;;;;0.47;0.43;;;7.30;99.90;7.20;100186.00;;;;4898683;28;117675;-70
2024/01/24 03:15:05;;;;;;;1.37;0.70;;;7.20;99.90;7.20;100190.00;;;;4898267;28;109324;-73
2024/01/24 03:17:32;;;;;;;0.73;0.43;;;7.30;99.90;7.30;100190.00;;;;4911756;28;87910;-72
2024/01/24 03:19:58;;;;;;;0.77;0.43;;;7.40;99.90;7.30;100190.00;;;;4897131;28;88903;-71
2024/01/24 03:22:24;;;;;;;1.83;0.60;;;7.40;99.90;7.40;100173.00;;;;4900610;28;90307;-73
2024/01/24 03:24:51;;;;;;;1.13;0.50;;;7.50;99.90;7.40;100162.00;;;;4901604;28;87832;-72
2024/01/24 03:27:17;;;;;;;0.37;0.33;;;7.50;99.90;7.50;100137.00;;;;4899774;28;87794;-72
2024/01/24 03:29:43;;;;;;;1.37;0.70;;;7.60;99.90;7.60;100136.00;;;;4895006;28;106307;-72
2024/01/24 03:32:09;;;;;;;0.90;0.53;;;7.70;99.90;7.60;100140.00;;;;4897612;28;116946;-71
2024/01/24 03:34:34;;;;;;;2.57;0.60;;;7.70;99.90;7.70;100142.00;;;;4896722;28;87940;-73
2024/01/24 03:37:00;;;;;;;3.20;0.80;;;7.90;99.90;7.80;100148.00;;;;4900014;28;108371;-73
2024/01/24 03:39:25;;;;;;;1.27;0.70;;;7.90;99.90;7.90;100145.00;;;;4893132;28;118118;-73
2024/01/24 03:41:51;;;;;;;2.23;0.53;;;8.00;99.90;7.90;100158.00;;;;4895393;28;89093;-73
2024/01/24 03:44:17;;;;;;;2.20;0.77;;;8.00;99.90;8.00;100164.00;;;;4897624;28;110571;-73
2024/01/24 03:46:43;;;;;;;0.50;0.50;;;8.10;99.90;8.10;100145.00;;;;4895199;28;87742;-72
2024/01/24 03:49:09;;;;;;;1.80;0.67;;;8.20;99.90;8.20;100147.00;;;;4897836;28;90298;-72
2024/01/24 03:51:34;;;;;;;1.23;0.57;;;8.30;99.90;8.20;100135.00;;;;4897169;28;117114;-72
2024/01/24 03:54:00;;;;;;;1.20;0.60;;;8.40;99.90;8.30;100138.00;;;;4898557;28;87121;-72
2024/01/24 03:56:26;;;;;;;0.50;0.50;;;8.40;99.90;8.40;100141.00;;;;4895681;28;107977;-72
2024/01/24 03:58:51;;;;;;;0.90;0.53;;;8.50;99.90;8.40;100133.00;;;;4893817;28;119913;-72
2024/01/24 04:01:17;;;;;;;2.17;0.63;;;8.50;99.90;8.50;100140.00;;;;4896145;28;116701;-71
2024/01/24 04:03:43;;;;;;;0.33;0.33;;;8.60;99.90;8.60;100136.00;;;;4897293;28;109512;-71
2024/01/24 04:06:08;;;;;;;0.43;0.43;;;8.70;99.90;8.60;100139.00;;;;4899308;28;87813;-70
2024/01/24 04:08:34;;;;;;;1.27;0.60;;;8.70;99.90;8.70;100141.00;;;;4896422;28;118045;-72
2024/01/24 04:11:00;;;;;;;2.23;0.50;;;8.80;99.90;8.80;100133.00;;;;4895016;28;118908;-69
2024/01/24 04:13:25;;;;;;;5.10;0.83;;;8.90;99.90;8.80;100115.00;;;;4896856;28;88748;-69
2024/01/24 04:15:51;;;;;;;2.63;0.77;;;8.90;99.90;8.90;100122.00;;;;4897600;28;107979;-70
2024/01/24 04:18:17;;;;;;;0.30;0.30;;;9.00;99.90;9.00;100131.00;;;;4897122;28;117183;-69
2024/01/24 04:20:42;;;;;;;2.60;0.50;;;8.90;99.90;9.00;100114.00;;;;4894219;28;116741;-68
2024/01/24 04:23:08;;;;;;;0.70;0.50;;;9.10;99.90;9.10;100137.00;;;;4896666;28;88739;-67
2024/01/24 04:25:34;;;;;;;1.70;0.63;;;9.20;99.90;9.20;100123.00;;;;4900749;28;89526;-68
2024/01/24 04:27:59;;;;;;;4.17;0.40;;;9.30;99.90;9.20;100119.00;;;;4900705;28;117030;-69
2024/01/24 04:30:25;;;;;;;2.57;0.50;;;9.40;99.90;9.30;100131.00;;;;4900291;28;88402;-69
2024/01/24 04:32:51;;;;;;;0.67;0.30;;;9.30;99.90;9.30;100118.00;;;;4903261;28;87723;-68
2024/01/24 04:35:19;;;;;;;0.53;0.37;;;9.40;99.90;9.40;100080.00;;;;4902488;28;109237;-69
2024/01/24 04:37:45;;;;;;;0.73;0.53;;;9.50;99.90;9.40;100099.00;;;;4900636;28;88835;-69
2024/01/24 04:40:12;;;;;;;0.37;0.20;;;9.50;99.90;9.50;100097.00;;;;4900110;28;109630;-70
2024/01/24 04:42:38;;;;;;;1.60;0.30;;;9.60;99.90;9.60;100086.00;;;;4902882;28;87234;-69
2024/01/24 04:45:04;;;;;;;0.80;0.40;;;9.60;99.90;9.60;100085.00;;;;4903372;28;88266;-70
2024/01/24 04:47:30;;;;;;;0.80;0.37;;;9.70;99.90;9.70;100093.00;;;;4900425;28;108881;-69
2024/01/24 04:49:56;;;;;;;1.60;0.77;;;9.70;99.90;9.70;100102.00;;;;4905107;28;88915;-71
2024/01/24 04:52:22;;;;;;;0.33;0.30;;;9.70;99.90;9.70;100102.00;;;;4897557;28;110597;-69
2024/01/24 04:54:47;;;;;;;0.23;0.20;;;9.80;99.90;9.70;100075.00;;;;4899408;28;107994;-70
2024/01/24 04:57:14;;;;;;;2.73;0.47;;;9.80;99.90;9.70;100076.00;;;;4898134;28;108866;-69
2024/01/24 04:59:41;;;;;;;0.47;0.30;;;9.80;99.90;9.80;100067.00;;;;4901006;28;88089;-68
2024/01/24 05:02:06;;;;;;;0.53;0.40;;;9.80;99.90;9.80;100043.00;;;;4901311;28;88068;-71
2024/01/24 05:04:32;;;;;;;0.47;0.30;;;9.90;99.90;9.80;100068.00;;;;4904063;28;87927;-70
2024/01/24 05:06:58;;;;;;;1.80;0.40;;;9.90;99.90;9.90;100044.00;;;;4898162;28;87119;-71
2024/01/24 05:09:24;;;;;;;0.30;0.13;;;9.90;99.90;9.80;100037.00;;;;4899333;28;100176;-70
2024/01/24 05:11:49;;;;;;;0.97;0.33;;;9.90;99.90;9.90;100045.00;;;;4901329;28;109450;-70
2024/01/24 05:14:15;;;;;;;1.30;0.40;;;10.00;99.90;9.90;100049.00;;;;4898294;28;88644;-69
2024/01/24 05:16:41;;;;;;;0.33;0.33;;;9.90;99.90;9.90;100049.00;;;;4900990;28;117495;-69
2024/01/24 05:19:08;;;;;;;0.33;0.20;;;10.00;99.90;9.90;100052.00;;;;4900362;28;88126;-70
2024/01/24 05:21:43;;;;;;;0.93;0.30;;;10.00;99.90;9.90;100045.00;;;;4901250;28;87919;-71
2024/01/24 05:24:10;;;;;;;0.20;0.20;;;10.00;99.90;9.90;100042.00;;;;4896901;28;88113;-69
2024/01/24 05:26:36;;;;;;;1.60;0.50;;;10.00;99.90;10.00;100043.00;;;;4893587;28;89130;-70
2024/01/24 05:29:06;;;;;;;3.23;0.83;;;10.00;99.90;10.00;100042.00;;;;4898149;28;100382;-69
2024/01/24 05:31:33;;;;;;;0.50;0.40;;;10.10;99.90;10.00;100042.00;;;;4899422;28;87189;-69
2024/01/24 05:34:02;;;;;;;0.73;0.33;;;10.10;99.90;10.00;100047.00;;;;4900672;28;87978;-70
2024/01/24 05:36:27;;;;;;;0.63;0.30;;;10.10;99.90;10.00;100042.00;;;;4894835;28;88109;-70
2024/01/24 05:38:53;;;;;;;0.40;0.30;;;10.00;99.90;10.00;100043.00;;;;4891882;28;118661;-71
2024/01/24 05:41:19;;;;;;;1.90;0.40;;;10.20;99.90;10.10;100049.00;;;;4895955;28;87804;-70
2024/01/24 05:43:44;;;;;;;1.60;0.53;;;10.10;99.90;10.10;100031.00;;;;4895628;28;109271;-70
2024/01/24 05:46:10;;;;;;;0.30;0.30;;;10.20;99.90;10.10;100022.00;;;;4890145;28;88494;-69
2024/01/24 05:48:36;;;;;;;1.03;0.40;;;10.20;99.90;10.20;100025.00;;;;4890309;28;116999;-69
2024/01/24 05:51:01;;;;;;;0.87;0.50;;;10.30;99.90;10.20;100023.00;;;;4893094;28;109395;-70
2024/01/24 05:53:27;;;;;;;1.20;0.20;;;10.30;99.90;10.30;100006.00;;;;4894163;28;88390;-69
2024/01/24 05:55:53;;;;;;;3.20;0.57;;;10.30;99.90;10.30;99994.00;;;;4897579;28;87468;-69
2024/01/24 05:58:19;;;;;;;0.33;0.23;;;10.40;99.90;10.30;99988.00;;;;4894467;28;117660;-68
2024/01/24 06:00:45;;;;;;;0.73;0.30;;;10.40;99.90;10.40;99986.00;;;;4896081;28;88339;-69
2024/01/24 06:03:12;;;;;;;0.73;0.30;;;10.40;99.90;10.40;100017.00;;;;4894217;28;110184;-69
2024/01/24 06:05:38;;;;;;;2.40;0.20;;;10.40;99.90;10.40;100007.00;;;;4894642;28;115903;-70
2024/01/24 06:08:05;;;;;;;0.33;0.33;;;10.40;99.90;10.50;100008.00;;;;4902418;28;88258;-70
2024/01/24 06:10:31;;;;;;;0.77;0.13;;;10.50;99.90;10.50;99983.00;;;;4909016;28;89118;-70
2024/01/24 06:12:57;;;;;;;0.27;0.17;;;10.60;99.90;10.50;99979.00;;;;4894552;28;98275;-71
2024/01/24 06:15:22;;;;;;;0.20;0.20;;;10.60;99.90;10.60;99987.00;;;;4896533;28;88515;-71
2024/01/24 06:17:48;;;;;;;0.40;0.37;;;10.60;99.90;10.70;99992.00;;;;4875761;28;117513;-72
2024/01/24 06:20:15;;;;;;;0.20;0.20;;;10.70;99.90;10.70;99976.00;;;;4895570;28;87319;-71
2024/01/24 06:22:41;;;;;;;0.10;0.10;;;10.70;99.90;10.70;99977.00;;;;4893990;28;87828;-71
2024/01/24 06:25:07;;;;;;;0.20;0.20;;;10.80;99.90;10.80;99936.00;;;;4890848;28;113122;-71
2024/01/24 06:27:36;;;;;;;0.73;0.20;;;10.90;99.90;10.80;99960.00;;;;4890836;28;117748;-72
2024/01/24 06:30:02;;;;;;;0.33;0.30;;;10.90;99.90;10.90;99967.00;;;;4895451;28;87892;-71
2024/01/24 06:32:28;;;;;;;0.10;0.10;;;10.90;99.90;10.90;99956.00;;;;4894538;28;87975;-71
2024/01/24 06:34:53;;;;;;;0.17;0.17;;;11.00;99.90;11.00;99962.00;;;;4892336;28;112055;-71
2024/01/24 06:37:20;;;;;;;0.10;0.10;;;11.00;99.90;11.00;99944.00;;;;4889975;28;116913;-71
2024/01/24 06:39:46;;;;;;;0.27;0.27;;;11.10;99.90;11.10;99942.00;;;;4892507;28;88117;-70
2024/01/24 06:42:12;;;;;;;0.40;0.40;;;11.10;99.90;11.10;99942.00;;;;4892580;28;109892;-70
2024/01/24 06:44:37;;;;;;;0.47;0.30;;;11.20;99.90;11.10;99939.00;;;;4899089;28;87086;-70
2024/01/24 06:47:03;;;;;;;0.33;0.20;;;11.20;99.90;11.20;99912.00;;;;4896121;28;115236;-70
2024/01/24 06:49:29;;;;;;;0.10;0.10;;;11.20;99.90;11.10;99942.00;;;;4898489;28;87768;-71
2024/01/24 06:51:55;;;;;;;0.27;0.20;;;11.20;99.90;11.10;99941.00;;;;4896254;28;88922;-71
2024/01/24 06:54:21;;;;;;;0.40;0.30;;;11.20;99.90;11.10;99932.00;;;;4903345;28;89134;-71
2024/01/24 06:56:47;;;;;;;0.30;0.10;;;11.20;99.90;11.20;99948.00;;;;4898100;28;116213;-72
2024/01/24 06:59:13;;;;;;;1.40;0.50;;;11.20;99.90;11.20;99953.00;;;;4900894;28;87893;-72
2024/01/24 07:01:39;;;;;;;0.20;0.10;;;11.20;99.90;11.20;99931.00;;;;4898280;28;87952;-71
2024/01/24 07:04:05;;;;;;;0.20;0.20;;;11.30;99.90;11.30;99936.00;;;;4898106;28;89098;-71
2024/01/24 07:06:31;;;;;;;0.57;0.30;;;11.40;99.90;11.30;99955.00;;;;4895377;28;88035;-70
2024/01/24 07:08:57;;;;;;;0.77;0.30;;;11.20;99.90;11.30;99944.00;;;;4901880;28;111747;-70
2024/01/24 07:11:23;;;;;;;0.63;0.40;;;11.40;99.90;11.40;99939.00;;;;4901118;28;87821;-73
2024/01/24 07:13:48;;;;;;;0.20;0.20;;;11.40;99.90;11.40;99958.00;;;;4899181;28;110782;-73
2024/01/24 07:16:14;;;;;;;1.33;0.43;;;11.40;99.90;11.40;99959.00;;;;4893571;28;115822;-75
2024/01/24 07:18:39;;;;;;;0.30;0.30;;;11.50;99.90;11.50;99955.00;;;;4897582;28;105876;-73
2024/01/24 07:21:07;;;;;;;0.30;0.30;;;11.50;99.90;11.50;99934.00;;;;4899624;28;109912;-75
2024/01/24 07:23:33;;;;;;;0.20;0.20;;;11.60;99.90;11.60;99942.00;;;;4910669;28;115687;-73
2024/01/24 07:25:59;;;;;;;0.30;0.27;;;11.60;99.90;11.60;99923.00;;;;4902539;28;116645;-72
2024/01/24 07:28:24;;;;;;;0.30;0.30;;;11.60;99.90;11.60;99936.00;;;;4899434;28;110046;-74
2024/01/24 07:30:50;;;;;;;0.30;0.30;;;11.70;99.90;11.70;99959.00;;;;4899624;28;87958;-73
2024/01/24 07:33:16;;;;;;;1.80;0.70;;;11.70;99.90;11.70;99938.00;;;;4900912;28;117722;-73
2024/01/24 07:35:41;;;;;;;0.00;0.00;;;11.80;99.90;11.80;99940.00;;;;4902361;28;87972;-72
2024/01/24 07:38:07;;;;;;;0.40;0.30;;;11.80;99.90;11.80;99943.00;;;;4905268;28;88230;-73
2024/01/24 07:40:33;;;;;;;5.73;0.43;;;11.80;99.90;11.80;99926.00;;;;4905820;28;90196;-73
2024/01/24 07:42:59;;;;;;;5.67;0.37;;;11.90;99.90;11.80;99937.00;;;;4900882;28;117731;-76
2024/01/24 07:45:25;;;;;;;0.10;0.10;;;11.90;99.90;11.80;99918.00;;;;4896416;28;117850;-72
2024/01/24 07:47:51;;;;;;;0.43;0.20;;;11.90;99.90;11.90;99930.00;;;;4895314;28;110719;-73
2024/01/24 07:50:17;;;;;;;2.63;0.40;;;11.90;99.90;11.80;99925.00;;;;4896846;28;88424;-73
2024/01/24 07:52:43;;;;;;;0.43;0.23;;;11.90;99.90;11.80;99904.00;;;;4899316;28;88880;-75
2024/01/24 07:55:10;;;;;;;7.23;0.60;;;11.90;99.90;11.80;99937.00;;;;4893253;28;89521;-73
2024/01/24 07:57:36;;;;;;;0.13;0.13;;;11.90;99.90;11.80;99915.00;;;;4898779;28;87299;-72
2024/01/24 08:00:04;;;;;;;2.00;0.30;;;11.90;99.90;11.80;99935.00;;;;4896005;28;93582;-74
2024/01/24 08:02:30;;;;;;;0.30;0.30;;;11.90;99.90;11.70;99954.00;;;;4897795;28;87995;-74
2024/01/24 08:04:57;;;;;;;2.17;0.63;;;11.80;99.90;11.70;99953.00;;;;4902389;28;88977;-74
2024/01/24 08:07:23;;;;;;;1.13;0.50;;;11.80;99.90;11.60;99972.00;;;;4897364;28;87963;-73
2024/01/24 08:09:49;;;;;;;0.63;0.47;;;11.70;99.90;11.60;99955.00;;;;4895886;28;99375;-73
2024/01/24 08:12:14;;;;;;;0.20;0.20;;;11.70;99.90;11.40;99949.00;;;;4897008;28;118194;-78
2024/01/24 08:14:40;;;;;;;0.67;0.33;;;12.50;99.90;11.20;99979.00;;;;4896428;28;109123;-77
2024/01/24 08:17:08;;;;;;;1.20;0.20;;;11.40;99.90;11.00;99979.00;;;;4898313;28;87946;-74
2024/01/24 08:19:33;;;;;;;0.20;0.20;;;11.20;99.90;10.90;99980.00;;;;4901245;28;88035;-74
2024/01/24 08:21:59;;;;;;;0.10;0.10;;;11.00;99.90;10.80;99972.00;;;;4900047;28;107311;-76
2024/01/24 08:24:25;;;;;;;0.67;0.33;;;10.90;99.90;10.70;99978.00;;;;4902561;28;88271;-78
2024/01/24 08:26:52;;;;;;;0.87;0.20;;;10.80;99.90;10.70;99986.00;;;;4902291;28;87863;-80
2024/01/24 08:29:18;;;;;;;0.40;0.40;;;10.80;99.90;10.60;99992.00;;;;4900151;28;88738;-74
2024/01/24 08:31:44;;;;;;;0.27;0.27;;;10.70;99.90;10.60;99993.00;;;;4902783;28;88960;-76
2024/01/24 08:34:10;;;;;;;0.37;0.37;;;10.70;99.90;10.60;99982.00;;;;4898089;28;117017;-77
2024/01/24 08:36:36;;;;;;;0.67;0.37;;;10.70;99.90;10.70;99984.00;;;;4901259;28;110544;-74
2024/01/24 08:39:03;;;;;;;2.93;0.40;;;10.70;99.90;10.80;99962.00;;;;4897144;28;87925;-77
2024/01/24 08:41:29;;;;;;;0.83;0.20;;;10.80;99.90;10.90;99971.00;;;;4913577;28;89213;-75
2024/01/24 08:43:57;;;;;;;0.40;0.30;;;10.90;99.90;11.00;99946.00;;;;4904057;28;107866;-75
2024/01/24 08:46:23;;;;;;;0.10;0.10;;;11.10;99.90;11.20;99986.00;;;;4884057;28;87391;-74
2024/01/24 08:48:49;;;;;;;0.20;0.20;;;11.30;99.90;11.50;99977.00;;;;4903860;28;88288;-74
2024/01/24 08:51:15;;;;;;;2.30;0.83;;;11.50;99.90;11.90;99990.00;;;;4895664;28;87830;-70
2024/01/24 08:53:40;;;;;;;2.80;0.50;;;11.80;99.90;12.40;99986.00;;;;4908230;28;89314;-72
2024/01/24 08:56:09;;;;;;;5.30;0.77;;;12.20;99.90;12.60;99987.00;;;;4899884;28;108993;-72
2024/01/24 08:58:36;;;;;;;0.10;0.10;;;12.50;99.90;12.80;99962.00;;;;4899469;28;87778;-71
2024/01/24 09:01:02;;;;;;;0.27;0.27;;;12.70;99.90;12.90;99985.00;;;;4906533;28;106378;-70
2024/01/24 09:03:28;;;;;;;0.23;0.17;;;12.90;99.90;13.00;99990.00;;;;4914325;28;102708;-70
2024/01/24 09:05:53;;;;;;;0.20;0.20;;;13.20;99.90;13.30;99988.00;;;;4899306;28;88319;-70
2024/01/24 09:08:19;;;;;;;0.30;0.20;;;13.20;99.90;13.50;100000.00;;;;4897465;28;107895;-70
2024/01/24 09:10:45;;;;;;;2.17;0.20;;;13.50;99.90;13.80;100001.00;;;;4901479;28;117454;-70
2024/01/24 09:13:10;;;;;;;0.17;0.17;;;13.70;99.90;14.10;99990.00;;;;4898340;28;116512;-70
2024/01/24 09:15:36;;;;;;;0.98;0.22;;;14.00;99.90;14.50;99991.00;;;;4906598;28;88270;-73
2024/01/24 09:18:02;;;;;;;0.43;0.17;;;14.30;99.90;14.60;99997.00;;;;4897962;28;92120;-71
2024/01/24 09:20:28;;;;;;;0.75;0.40;;;14.60;99.90;14.50;99999.00;;;;4899532;28;88992;-71
2024/01/24 09:22:54;;;;;;;0.50;0.20;;;14.60;99.90;14.40;99982.00;;;;4897123;28;88503;-73
2024/01/24 09:25:19;;;;;;;0.47;0.40;;;14.50;99.90;14.40;99985.00;;;;4913315;28;109952;-69
2024/01/24 09:27:45;;;;;;;3.08;0.77;;;14.50;99.90;14.20;99993.00;;;;4902006;28;108987;-69
2024/01/24 09:30:12;;;;;;;0.10;0.10;;;14.30;99.90;14.10;99993.00;;;;4899873;28;96516;-70
2024/01/24 09:32:37;;;;;;;0.22;0.20;;;14.20;99.90;14.00;99977.00;;;;4898969;28;87633;-69
2024/01/24 09:35:04;;;;;;;0.10;0.10;;;14.10;99.90;13.80;100015.00;;;;4899117;28;88552;-70
2024/01/24 09:37:30;;;;;;;0.47;0.20;;;13.90;99.90;13.70;100030.00;;;;4900467;28;96678;-71
2024/01/24 09:39:56;;;;;;;0.20;0.20;;;13.80;99.90;13.60;100035.00;;;;4902643;28;88370;-69
2024/01/24 09:42:25;;;;;;;0.52;0.25;;;13.70;99.90;13.40;100032.00;;;;4899372;28;104454;-70
2024/01/24 09:44:52;;;;;;;0.60;0.10;;;13.50;99.90;13.20;100051.00;;;;4898114;28;88035;-71
2024/01/24 09:47:23;;;;;;;0.50;0.20;;;13.40;99.90;13.00;100068.00;;;;4911514;28;88230;-74
2024/01/24 09:49:50;;;;;;;0.43;0.38;;;13.10;99.90;12.50;100105.00;;;;4898999;28;88367;-71
2024/01/24 09:52:18;;;;;;;0.90;0.20;;;12.80;99.90;12.00;100081.00;;;;4912806;28;95981;-70
2024/01/24 09:54:45;;;;;;;0.77;0.47;;;12.40;99.90;11.40;100063.00;;;;4900244;28;87461;-73
2024/01/24 09:57:12;;;;;;;1.47;0.80;;;11.80;99.90;10.90;100082.00;;;;4913782;28;88017;-71
2024/01/24 09:59:39;;;;;;;0.57;0.37;;;11.30;99.90;10.60;100103.00;;;;4897833;28;88599;-70
2024/01/24 10:02:06;;;;;;;1.70;0.70;;;10.90;99.90;10.30;100085.00;;;;4912794;28;103212;-71
2024/01/24 10:04:37;;;;;;;2.77;0.53;;;10.60;99.90;10.10;100084.00;;;;4915585;28;87714;-69
2024/01/24 10:07:06;;;;;;;0.70;0.33;;;10.30;99.90;9.90;100096.00;;;;4917550;28;89156;-70
2024/01/24 10:09:31;;;;;;;1.37;0.60;;;10.10;99.90;9.80;100090.00;;;;4911590;28;106221;-69
2024/01/24 10:11:57;;;;;;;2.30;0.63;;;10.00;99.90;9.70;100092.00;;;;4896776;28;116675;-70
2024/01/24 10:14:23;;;;;;;3.23;0.87;;;9.90;99.90;9.60;100099.00;;;;4899498;28;88122;-70
2024/01/24 10:16:50;;;;;;;1.20;0.60;;;9.70;99.90;9.50;100111.00;;;;4898540;28;109652;-73
2024/01/24 10:19:21;;;;;;;0.67;0.47;;;9.70;99.90;9.50;100102.00;;;;4897895;28;98263;-72
2024/01/24 10:21:48;;;;;;;3.23;0.80;;;9.60;99.90;9.40;100116.00;;;;4898859;28;108049;-73
2024/01/24 10:24:14;;;;;;;3.40;0.70;;;9.60;99.90;9.40;100097.00;;;;4908841;28;109950;-76
2024/01/24 10:26:39;;;;;;;2.23;0.87;;;9.50;99.90;9.50;100104.00;;;;4892886;28;106033;-74
2024/01/24 10:29:07;;;;;;;0.50;0.50;;;9.60;99.90;9.50;100102.00;;;;4897094;28;88697;-75
2024/01/24 10:31:33;;;;;;;1.10;0.50;;;9.60;99.90;9.60;100108.00;;;;4911843;28;116039;-75
2024/01/24 10:33:58;;;;;;;4.77;1.40;;;9.70;99.90;9.80;100115.00;;;;4900017;28;110283;-75
2024/01/24 10:36:27;;;;;;;3.30;0.80;;;9.80;99.90;10.00;100090.00;;;;4909900;28;94721;-74
2024/01/24 10:39:00;;;;;;;5.60;0.60;;;10.00;99.90;10.50;100102.00;;;;4910324;28;88275;-77
2024/01/24 10:41:40;;;;;;;2.60;0.80;;;10.40;99.90;10.70;100090.00;;;;4912698;28;87997;-75
2024/01/24 10:44:09;;;;;;;1.87;0.90;;;10.70;99.90;10.80;100108.00;;;;4902981;28;88072;-73
2024/01/24 10:46:40;;;;;;;1.17;0.77;;;10.90;99.90;10.90;100096.00;;;;4909067;28;87883;-73
2024/01/24 10:49:10;;;;;;;6.10;0.80;;;11.00;99.90;11.00;100105.00;;;;4897444;28;88996;-74